createdAt,value
2022-09-29T11:37:58.389Z,2.70
2022-09-29T11:43:07.704Z,2.70
2022-09-29T11:52:39.542Z,2.20
2022-09-29T11:53:39.507Z,2.10
2022-09-29T11:54:39.482Z,2.40
2022-09-29T11:55:39.471Z,2.80
2022-09-29T11:56:39.460Z,2.60
2022-09-29T11:57:39.438Z,2.60
2022-09-29T11:58:39.428Z,2.80
2022-09-29T11:59:39.401Z,2.40
2022-09-29T12:00:39.380Z,2.60
2022-09-29T12:01:39.361Z,2.40
2022-09-29T12:02:39.414Z,2.50
2022-09-29T12:03:39.329Z,2.50
2022-09-29T12:04:39.474Z,2.90
2022-09-29T12:05:39.305Z,2.50
2022-09-29T12:06:39.290Z,2.80
2022-09-29T12:07:39.275Z,3.00
2022-09-29T12:08:39.247Z,2.70
2022-09-29T12:09:39.266Z,2.60
2022-09-29T12:10:39.231Z,2.80
2022-09-29T12:11:54.721Z,2.40
2022-09-29T12:12:39.231Z,2.80
2022-09-29T12:23:47.121Z,2.50
2022-09-29T12:35:40.559Z,2.80
2022-09-29T12:36:40.513Z,2.40
2022-09-29T12:37:40.489Z,2.70
2022-09-29T12:38:40.479Z,2.30
2022-09-29T12:39:40.468Z,2.30
2022-09-29T12:40:40.446Z,2.40
2022-09-29T12:41:40.447Z,2.20
2022-09-29T12:42:40.414Z,2.00
2022-09-29T12:43:40.394Z,2.30
2022-09-29T12:44:40.382Z,2.10
2022-09-29T12:45:40.355Z,1.80
2022-09-29T12:46:40.339Z,1.60
2022-09-29T12:47:40.353Z,1.60
2022-09-29T12:48:40.320Z,1.60
2022-09-29T12:49:40.296Z,1.90
2022-09-29T12:50:40.286Z,1.80
2022-09-29T12:51:40.277Z,1.70
2022-09-29T12:52:40.246Z,1.30
2022-09-29T12:53:40.259Z,1.60
2022-09-29T12:54:40.218Z,1.80
2022-09-29T12:55:40.216Z,1.40
2022-09-29T12:56:40.192Z,1.60
2022-09-29T12:57:40.193Z,1.70
2022-09-29T12:58:40.168Z,1.60
2022-09-29T12:59:40.183Z,1.50
2022-09-29T13:00:40.133Z,1.50
2022-09-29T13:01:40.168Z,1.40
2022-09-29T13:02:40.143Z,1.60
2022-09-29T13:03:40.104Z,1.40
2022-09-29T13:04:40.082Z,1.40
2022-09-29T13:05:40.079Z,1.70
2022-09-29T13:06:40.049Z,2.00
2022-09-29T13:07:40.039Z,2.10
2022-09-29T13:08:40.059Z,1.70
2022-09-29T13:09:40.030Z,1.80
2022-09-29T13:10:40.002Z,1.70
2022-09-29T13:11:40.009Z,1.50
2022-09-29T13:12:39.970Z,1.60
2022-09-29T13:13:39.952Z,2.00
2022-09-29T13:14:39.944Z,1.60
2022-09-29T13:15:45.279Z,1.30
2022-09-29T13:16:39.919Z,1.80
2022-09-29T13:17:41.072Z,1.50
2022-09-29T13:18:44.883Z,1.80
2022-09-29T13:19:56.675Z,1.80
2022-09-29T13:20:39.877Z,1.70
2022-09-29T13:21:39.858Z,1.80
2022-09-29T13:22:39.845Z,1.50
2022-09-29T13:23:39.848Z,1.50
2022-09-29T13:24:43.575Z,1.50
2022-09-29T13:25:39.804Z,1.40
2022-09-29T13:26:39.796Z,1.40
2022-09-29T13:27:39.783Z,1.40
2022-09-29T13:28:39.774Z,1.30
2022-09-29T13:29:39.767Z,1.40
2022-09-29T13:30:39.784Z,1.40
2022-09-29T13:31:39.789Z,1.10
2022-09-29T13:32:39.712Z,1.20
2022-09-29T13:33:39.700Z,1.10
2022-09-29T13:34:39.689Z,1.10
2022-09-29T13:35:39.688Z,1.10
2022-09-29T13:36:39.671Z,1.40
2022-09-29T13:37:39.659Z,1.10
2022-09-29T13:38:39.647Z,1.30
2022-09-29T13:39:39.639Z,1.30
2022-09-29T13:40:39.619Z,1.70
2022-09-29T13:41:39.649Z,1.50
2022-09-29T13:42:39.599Z,1.50
2022-09-29T13:43:39.582Z,1.20
2022-09-29T13:44:39.579Z,1.30
2022-09-29T13:45:39.713Z,1.50
2022-09-29T13:46:39.543Z,1.20
2022-09-29T13:47:39.566Z,1.30
2022-09-29T13:48:39.524Z,1.20
2022-09-29T13:49:39.512Z,1.00
2022-09-29T13:50:39.520Z,1.30
2022-09-29T13:51:39.501Z,1.30
2022-09-29T13:52:39.484Z,1.10
2022-09-29T13:53:39.495Z,1.30
2022-09-29T13:54:39.467Z,0.90
2022-09-29T13:55:39.456Z,1.00
2022-09-29T13:56:39.447Z,1.10
2022-09-29T13:57:39.422Z,1.10
2022-09-29T13:58:39.418Z,1.00
2022-09-29T13:59:39.505Z,1.10
2022-09-29T14:00:39.408Z,1.00
2022-09-29T14:01:39.453Z,0.90
2022-09-29T14:02:39.421Z,1.10
2022-09-29T14:03:39.358Z,1.00
2022-09-29T14:04:59.941Z,1.10
2022-09-29T14:07:24.598Z,1.00
2022-09-29T14:08:24.591Z,1.20
2022-09-29T14:09:24.715Z,1.20
2022-09-29T14:10:24.588Z,1.00
2022-09-29T14:11:24.549Z,1.00
2022-09-29T14:12:24.545Z,1.20
2022-09-29T14:13:24.524Z,1.40
2022-09-29T14:14:24.514Z,1.20
2022-09-29T14:15:24.511Z,1.00
2022-09-29T14:16:24.546Z,1.00
2022-09-29T14:17:24.478Z,1.10
2022-09-29T14:18:24.477Z,1.20
2022-09-29T14:19:24.476Z,0.90
2022-09-29T14:20:24.460Z,0.80
2022-09-29T14:21:24.439Z,1.10
2022-09-29T14:22:24.451Z,1.20
2022-09-29T14:23:24.425Z,1.00
2022-09-29T14:24:25.934Z,1.10
2022-09-29T14:25:24.402Z,1.00
2022-09-29T14:26:24.399Z,1.10
2022-09-29T14:27:24.376Z,1.30
2022-09-29T14:28:24.391Z,1.20
2022-09-29T14:29:24.357Z,1.20
2022-09-29T14:30:24.358Z,1.10
2022-09-29T14:31:24.481Z,1.30
2022-09-29T14:32:24.340Z,1.30
2022-09-29T14:33:24.334Z,1.50
2022-09-29T14:34:24.328Z,1.10
2022-09-29T14:37:21.219Z,1.60
2022-09-29T14:38:21.200Z,1.20
2022-09-29T14:39:26.458Z,1.30
2022-09-29T14:40:21.197Z,1.30
2022-09-29T14:41:21.175Z,1.10
2022-09-29T14:42:21.161Z,1.10
2022-09-29T14:43:21.156Z,1.00
2022-09-29T14:44:21.132Z,1.10
2022-09-29T14:45:21.123Z,1.30
2022-09-29T14:46:21.329Z,1.00
2022-09-29T14:47:21.103Z,1.20
